createdAt,value
2023-04-02T00:00:11.975Z,2.78
2023-04-02T00:03:09.823Z,2.25
2023-04-02T00:05:54.850Z,2.80
2023-04-02T00:08:40.872Z,2.50
2023-04-02T00:11:09.663Z,2.47
2023-04-02T00:13:43.765Z,2.17
2023-04-02T00:16:22.189Z,1.77
2023-04-02T00:18:56.308Z,2.65
2023-04-02T00:21:38.884Z,2.20
2023-04-02T00:24:17.753Z,1.70
2023-04-02T00:26:49.915Z,2.50
2023-04-02T00:29:19.289Z,2.03
2023-04-02T00:31:52.897Z,2.25
2023-04-02T00:34:31.777Z,2.03
2023-04-02T00:36:59.964Z,1.90
2023-04-02T00:39:32.967Z,2.80
2023-04-02T00:42:06.383Z,2.25
2023-04-02T00:44:42.859Z,2.28
2023-04-02T00:47:22.752Z,2.70
2023-04-02T00:50:13.763Z,2.70
2023-04-02T00:52:44.681Z,2.33
2023-04-02T00:55:39.038Z,2.08
2023-04-02T00:58:26.467Z,2.33
2023-04-02T01:00:54.902Z,2.08
2023-04-02T01:03:30.213Z,2.10
2023-04-02T01:06:18.855Z,2.13
2023-04-02T01:09:26.263Z,1.95
2023-04-02T01:12:30.186Z,1.95
2023-04-02T01:15:21.852Z,1.95
2023-04-02T01:18:19.711Z,2.08
2023-04-02T01:21:11.005Z,1.63
2023-04-02T01:24:29.211Z,1.75
2023-04-02T01:27:02.116Z,1.77
2023-04-02T01:29:48.616Z,1.90
2023-04-02T01:32:21.922Z,1.65
2023-04-02T01:34:52.207Z,1.52
2023-04-02T01:37:44.928Z,2.03
2023-04-02T01:40:15.213Z,1.92
2023-04-02T01:42:53.598Z,1.95
2023-04-02T01:45:23.759Z,1.70
2023-04-02T01:47:51.607Z,1.60
2023-04-02T01:50:37.162Z,1.90
2023-04-02T01:56:04.837Z,1.75
2023-04-02T01:58:33.602Z,1.67
2023-04-02T02:01:06.901Z,1.75
2023-04-02T02:03:34.811Z,1.60
2023-04-02T02:06:03.398Z,1.58
2023-04-02T02:08:32.460Z,2.13
2023-04-02T02:11:01.788Z,1.80
2023-04-02T02:13:28.756Z,1.88
2023-04-02T02:16:01.693Z,1.48
2023-04-02T02:18:29.639Z,1.60
2023-04-02T02:21:04.987Z,2.08
2023-04-02T02:25:59.940Z,2.20
2023-04-02T02:28:36.349Z,1.80
2023-04-02T02:31:31.072Z,2.10
2023-04-02T02:34:09.126Z,2.10
2023-04-02T02:36:50.784Z,2.22
2023-04-02T02:39:28.246Z,1.90
2023-04-02T02:42:13.226Z,2.03
2023-04-02T02:44:47.730Z,2.33
2023-04-02T02:47:16.169Z,2.38
2023-04-02T02:49:50.017Z,2.63
2023-04-02T02:52:20.419Z,3.27
2023-04-02T02:54:54.205Z,2.92
2023-04-02T02:57:34.075Z,2.40
2023-04-02T03:00:05.664Z,2.95
2023-04-02T03:02:37.809Z,2.88
2023-04-02T03:05:07.632Z,3.25
2023-04-02T03:07:37.397Z,3.05
2023-04-02T03:10:33.384Z,3.38
2023-04-02T03:13:40.376Z,3.97
2023-04-02T03:16:17.444Z,3.50
2023-04-02T03:18:52.467Z,4.15
2023-04-02T03:21:25.396Z,3.70
2023-04-02T03:24:03.616Z,4.35
2023-04-02T03:26:38.461Z,4.07
2023-04-02T03:32:20.731Z,4.07
2023-04-02T03:34:57.872Z,4.80
2023-04-02T03:37:39.098Z,5.03
2023-04-02T03:40:31.213Z,4.70
2023-04-02T03:43:13.126Z,5.07
2023-04-02T03:45:47.990Z,4.88
2023-04-02T03:48:38.198Z,5.93
2023-04-02T03:51:14.629Z,4.88
2023-04-02T03:53:44.717Z,4.53
2023-04-02T03:56:39.958Z,4.47
2023-04-02T03:59:34.871Z,4.18
2023-04-02T04:02:49.665Z,4.32
2023-04-02T04:06:07.304Z,6.65
2023-04-02T04:08:54.784Z,5.57
2023-04-02T04:11:32.476Z,5.40
2023-04-02T04:14:31.179Z,5.43
2023-04-02T04:17:30.095Z,4.95
2023-04-02T04:20:23.534Z,4.60
2023-04-02T04:22:55.941Z,4.28
2023-04-02T04:25:30.562Z,4.45
2023-04-02T04:28:28.065Z,4.70
2023-04-02T04:31:21.152Z,4.50
2023-04-02T04:33:55.686Z,4.90
2023-04-02T04:36:33.715Z,4.70
2023-04-02T04:39:14.581Z,5.45
2023-04-02T04:41:43.479Z,5.07
2023-04-02T04:44:39.618Z,5.75
2023-04-02T04:47:27.093Z,5.68
2023-04-02T04:50:12.832Z,7.05
2023-04-02T04:52:43.023Z,6.30
2023-04-02T04:55:36.004Z,6.60
2023-04-02T04:58:23.530Z,6.63
2023-04-02T05:01:07.814Z,5.97
2023-04-02T05:04:06.026Z,6.57
2023-04-02T05:06:35.734Z,6.63
2023-04-02T05:09:31.821Z,6.03
2023-04-02T05:15:01.408Z,6.43
2023-04-02T05:17:38.559Z,6.13
2023-04-02T05:20:29.597Z,6.60
2023-04-02T05:23:10.747Z,6.20
2023-04-02T05:25:50.379Z,5.95
2023-04-02T05:28:59.143Z,5.13
2023-04-02T05:31:40.771Z,5.55
2023-04-02T05:34:09.839Z,4.97
2023-04-02T05:36:37.244Z,5.55
2023-04-02T05:39:10.284Z,5.38
2023-04-02T05:41:46.074Z,5.60
2023-04-02T05:44:26.404Z,4.72
2023-04-02T05:47:04.963Z,4.13
2023-04-02T05:50:14.760Z,4.05
2023-04-02T05:52:57.200Z,4.50
2023-04-02T05:55:58.190Z,4.07
2023-04-02T06:01:15.464Z,3.47
2023-04-02T06:04:03.848Z,3.63
2023-04-02T06:06:39.715Z,3.42
2023-04-02T06:09:17.862Z,2.90
2023-04-02T06:11:52.934Z,3.00
2023-04-02T06:14:20.161Z,3.10
2023-04-02T06:16:47.667Z,2.83
2023-04-02T06:19:31.046Z,3.03
2023-04-02T06:22:21.355Z,2.72
2023-04-02T06:25:00.718Z,3.17
2023-04-02T06:27:28.630Z,3.00
2023-04-02T06:30:05.644Z,3.33
2023-04-02T06:32:33.111Z,2.83
2023-04-02T06:35:00.365Z,2.80
2023-04-02T06:37:42.848Z,2.58
2023-04-02T06:40:50.473Z,2.80
2023-04-02T06:43:36.137Z,2.95
2023-04-02T06:46:18.220Z,2.70
2023-04-02T06:48:51.522Z,3.58
2023-04-02T06:51:25.557Z,3.00
2023-04-02T06:53:53.394Z,2.78
2023-04-02T06:56:46.263Z,2.85
2023-04-02T06:59:15.732Z,3.03
2023-04-02T07:02:03.746Z,2.30
2023-04-02T07:04:31.570Z,2.38
2023-04-02T07:06:59.302Z,2.40
2023-04-02T07:09:26.765Z,3.05
2023-04-02T07:11:53.903Z,2.33
2023-04-02T07:14:20.984Z,2.63
2023-04-02T07:16:48.613Z,1.98
2023-04-02T07:19:22.234Z,2.30
2023-04-02T07:21:49.555Z,2.30
2023-04-02T07:24:16.419Z,2.00
2023-04-02T07:26:43.907Z,1.98
2023-04-02T07:29:17.477Z,2.28
2023-04-02T07:31:44.813Z,2.17
2023-04-02T07:34:11.932Z,2.10
2023-04-02T07:36:39.106Z,2.20
2023-04-02T07:39:06.121Z,1.92
2023-04-02T07:41:33.433Z,1.80
2023-04-02T07:44:00.415Z,1.90
2023-04-02T07:46:27.799Z,2.03
2023-04-02T07:48:54.726Z,1.77
2023-04-02T07:51:26.198Z,1.52
2023-04-02T07:53:56.162Z,2.10
2023-04-02T07:56:25.441Z,1.98
2023-04-02T07:58:52.322Z,1.70
2023-04-02T08:01:29.413Z,1.60
2023-04-02T08:03:57.906Z,1.80
2023-04-02T08:06:25.922Z,1.58
2023-04-02T08:08:53.391Z,1.60
2023-04-02T08:11:20.815Z,1.90
2023-04-02T08:13:48.017Z,1.88
2023-04-02T08:16:16.113Z,2.03
2023-04-02T08:18:43.016Z,2.00
2023-04-02T08:21:11.606Z,1.98
2023-04-02T08:23:38.698Z,2.13
2023-04-02T08:26:07.127Z,1.85
2023-04-02T08:28:35.305Z,1.55
2023-04-02T08:31:05.058Z,3.13
2023-04-02T08:33:32.538Z,2.40
2023-04-02T08:35:59.927Z,1.60
2023-04-02T08:38:26.877Z,1.40
2023-04-02T08:41:04.647Z,1.67
2023-04-02T08:44:14.347Z,2.60
2023-04-02T08:46:47.666Z,1.30
2023-04-02T08:49:22.973Z,1.83
2023-04-02T08:51:50.758Z,1.92
2023-04-02T08:54:39.380Z,2.17
2023-04-02T08:57:34.499Z,1.95
2023-04-02T09:00:45.829Z,2.10
2023-04-02T09:03:27.777Z,1.83
2023-04-02T09:05:57.425Z,1.60
2023-04-02T09:08:27.500Z,1.90
2023-04-02T09:11:14.318Z,2.08
2023-04-02T09:13:47.867Z,2.92
2023-04-02T09:16:22.817Z,2.30
2023-04-02T09:18:54.042Z,1.90
2023-04-02T09:21:21.170Z,1.90
2023-04-02T09:23:50.126Z,1.90
2023-04-02T09:26:30.754Z,2.08
2023-04-02T09:29:14.729Z,1.70
2023-04-02T09:31:55.602Z,2.20
2023-04-02T09:34:35.486Z,1.98
2023-04-02T09:37:25.534Z,1.60
2023-04-02T09:40:15.881Z,1.80
2023-04-02T09:42:42.928Z,1.80
2023-04-02T09:45:13.238Z,1.90
2023-04-02T09:47:42.491Z,2.22
2023-04-02T09:50:22.053Z,1.67
2023-04-02T09:52:51.774Z,2.08
2023-04-02T09:55:25.420Z,2.22
2023-04-02T09:58:15.900Z,2.08
2023-04-02T10:00:53.387Z,2.08
2023-04-02T10:03:23.990Z,2.30
2023-04-02T10:06:13.069Z,3.53
2023-04-02T10:08:43.724Z,3.20
2023-04-02T10:11:46.149Z,10.52
2023-04-02T10:14:29.187Z,3.08
2023-04-02T10:17:08.031Z,3.33
2023-04-02T10:19:40.944Z,3.75
2023-04-02T10:22:21.653Z,2.85
2023-04-02T10:24:50.787Z,4.13
2023-04-02T10:27:39.775Z,3.08
2023-04-02T10:30:20.075Z,2.55
2023-04-02T10:33:09.935Z,3.00
2023-04-02T10:36:27.354Z,2.53
2023-04-02T10:39:25.638Z,3.67
2023-04-02T10:42:27.489Z,2.40
2023-04-02T10:45:16.510Z,2.33
2023-04-02T10:48:28.528Z,2.55
2023-04-02T10:51:43.895Z,2.58
2023-04-02T10:54:59.896Z,3.00
2023-04-02T10:57:57.602Z,2.38
2023-04-02T11:00:31.114Z,2.45
2023-04-02T11:03:42.347Z,2.22
2023-04-02T11:06:28.714Z,2.67
2023-04-02T11:09:05.305Z,2.90
2023-04-02T11:11:41.446Z,3.03
2023-04-02T11:14:19.991Z,3.83
2023-04-02T11:16:51.140Z,2.63
2023-04-02T11:19:18.508Z,2.83
2023-04-02T11:22:01.998Z,2.75
2023-04-02T11:24:31.681Z,2.58
2023-04-02T11:27:31.048Z,2.88
2023-04-02T11:30:16.691Z,3.30
2023-04-02T11:35:32.780Z,2.85
2023-04-02T11:38:12.162Z,2.83
2023-04-02T11:40:55.310Z,3.22
2023-04-02T11:43:34.561Z,3.20
2023-04-02T11:46:30.725Z,2.80
2023-04-02T11:52:36.831Z,3.22
2023-04-02T11:55:24.499Z,3.60
2023-04-02T11:58:04.561Z,3.70
2023-04-02T12:00:53.272Z,2.95
2023-04-02T12:04:00.765Z,3.80
2023-04-02T12:06:54.898Z,3.15
2023-04-02T12:09:51.542Z,2.70
2023-04-02T12:12:24.378Z,2.38
2023-04-02T12:14:54.756Z,2.80
2023-04-02T12:17:34.348Z,3.20
2023-04-02T12:20:10.402Z,3.50
2023-04-02T12:22:50.842Z,3.50
2023-04-02T12:25:21.733Z,4.03
2023-04-02T12:28:02.930Z,3.92
2023-04-02T12:30:30.590Z,3.45
2023-04-02T12:32:57.874Z,3.17
2023-04-02T12:35:35.158Z,3.38
2023-04-02T12:38:02.361Z,3.88
2023-04-02T12:40:29.851Z,3.95
2023-04-02T12:42:56.835Z,2.85
2023-04-02T12:45:29.817Z,4.10
2023-04-02T12:48:01.058Z,3.88
2023-04-02T12:50:28.631Z,3.42
2023-04-02T12:52:58.321Z,3.75
2023-04-02T12:55:27.369Z,3.63
2023-04-02T12:57:59.922Z,3.33
2023-04-02T13:00:31.560Z,3.15
2023-04-02T13:03:16.587Z,3.70
2023-04-02T13:05:57.569Z,3.65
2023-04-02T13:08:51.322Z,4.13
2023-04-02T13:11:18.834Z,2.85
2023-04-02T13:13:48.658Z,2.88
2023-04-02T13:16:15.918Z,2.88
2023-04-02T13:18:46.013Z,3.15
2023-04-02T13:21:19.716Z,2.88
2023-04-02T13:23:47.551Z,3.60
2023-04-02T13:26:29.640Z,2.92
2023-04-02T13:29:23.429Z,3.15
2023-04-02T13:31:53.593Z,3.33
2023-04-02T13:34:20.778Z,3.85
2023-04-02T13:36:48.459Z,2.90
2023-04-02T13:39:15.877Z,2.88
2023-04-02T13:41:59.054Z,3.15
2023-04-02T13:44:30.758Z,2.90
2023-04-02T13:46:59.666Z,3.67
2023-04-02T13:49:28.656Z,2.90
2023-04-02T13:52:00.580Z,3.47
2023-04-02T13:54:35.031Z,2.95
2023-04-02T13:57:02.374Z,3.17
2023-04-02T13:59:30.360Z,2.65
2023-04-02T14:02:22.018Z,3.00
2023-04-02T14:05:07.600Z,2.70
2023-04-02T14:07:58.587Z,2.97
2023-04-02T14:10:50.586Z,2.45
2023-04-02T14:13:42.683Z,2.88
2023-04-02T14:16:38.684Z,2.55
2023-04-02T14:20:07.053Z,2.15
2023-04-02T14:22:52.514Z,2.78
2023-04-02T14:26:10.395Z,2.97
2023-04-02T14:28:57.751Z,2.75
2023-04-02T14:31:34.224Z,2.80
2023-04-02T14:34:27.288Z,2.72
2023-04-02T14:37:15.659Z,2.72
2023-04-02T14:40:21.941Z,2.63
2023-04-02T14:43:25.237Z,3.10
2023-04-02T14:46:08.610Z,3.60
2023-04-02T14:49:02.047Z,3.00
2023-04-02T14:51:40.800Z,3.10
2023-04-02T14:54:39.904Z,3.25
2023-04-02T14:57:29.959Z,2.45
2023-04-02T15:00:25.293Z,2.70
2023-04-02T15:03:21.427Z,3.00
2023-04-02T15:05:57.178Z,3.33
2023-04-02T15:08:33.357Z,2.78
2023-04-02T15:11:23.691Z,3.08
2023-04-02T15:14:01.176Z,2.80
2023-04-02T15:16:28.588Z,2.88
2023-04-02T15:18:58.812Z,2.67
2023-04-02T15:21:56.040Z,2.88
2023-04-02T15:25:10.910Z,3.50
2023-04-02T15:28:29.675Z,3.10
2023-04-02T15:31:03.713Z,3.05
2023-04-02T15:33:31.178Z,4.20
2023-04-02T15:36:52.411Z,3.35
2023-04-02T15:39:56.861Z,2.85
2023-04-02T15:42:33.210Z,2.60
2023-04-02T15:45:12.675Z,3.30
2023-04-02T15:48:36.693Z,2.35
2023-04-02T15:51:35.940Z,2.33
2023-04-02T15:54:37.879Z,2.10
2023-04-02T15:57:18.225Z,2.22
2023-04-02T16:00:22.697Z,2.50
2023-04-02T16:03:11.560Z,2.10
2023-04-02T16:06:00.660Z,2.13
2023-04-02T16:09:05.069Z,1.95
2023-04-02T16:11:32.091Z,2.58
2023-04-02T16:14:28.398Z,3.15
2023-04-02T16:17:24.306Z,2.42
2023-04-02T16:20:02.481Z,2.13
2023-04-02T16:22:33.243Z,2.38
2023-04-02T16:25:23.932Z,2.67
2023-04-02T16:28:38.361Z,1.90
2023-04-02T16:31:46.157Z,2.85
2023-04-02T16:34:37.896Z,2.20
2023-04-02T16:37:26.991Z,1.95
2023-04-02T16:40:18.524Z,1.95
2023-04-02T16:42:57.276Z,2.58
2023-04-02T16:45:31.047Z,2.30
2023-04-02T16:48:22.096Z,1.63
2023-04-02T16:50:51.630Z,2.05
2023-04-02T16:54:05.343Z,2.00
2023-04-02T16:56:53.619Z,2.40
2023-04-02T16:59:53.573Z,2.22
2023-04-02T17:02:54.783Z,2.53
2023-04-02T17:05:47.692Z,2.60
2023-04-02T17:08:26.001Z,1.90
2023-04-02T17:11:07.924Z,2.33
2023-04-02T17:13:50.582Z,2.20
2023-04-02T17:16:35.503Z,2.30
2023-04-02T17:19:10.308Z,2.70
2023-04-02T17:24:23.365Z,2.50
2023-04-02T17:27:00.790Z,1.95
2023-04-02T17:29:40.664Z,2.15
2023-04-02T17:32:25.810Z,2.10
2023-04-02T17:34:53.360Z,2.30
2023-04-02T17:37:35.056Z,2.30
2023-04-02T17:40:49.966Z,2.50
2023-04-02T17:43:29.675Z,2.60
2023-04-02T17:46:05.173Z,3.00
2023-04-02T17:48:47.964Z,2.45
2023-04-02T17:52:09.371Z,3.25
2023-04-02T17:55:34.268Z,3.00
2023-04-02T17:58:19.461Z,3.80
2023-04-02T18:01:02.839Z,3.63
2023-04-02T18:03:49.623Z,3.50
2023-04-02T18:06:24.965Z,3.65
2023-04-02T18:08:57.738Z,3.63
2023-04-02T18:12:10.545Z,3.47
2023-04-02T18:15:02.091Z,3.83
2023-04-02T18:17:44.533Z,3.05
2023-04-02T18:20:41.907Z,2.58
2023-04-02T18:23:38.985Z,3.60
2023-04-02T18:26:36.599Z,4.10
2023-04-02T18:29:25.115Z,3.65
2023-04-02T18:32:19.878Z,2.92
2023-04-02T18:35:47.883Z,3.10
2023-04-02T18:39:09.537Z,2.80
2023-04-02T18:42:52.951Z,2.97
2023-04-02T18:45:19.887Z,3.28
2023-04-02T18:48:18.459Z,3.33
2023-04-02T18:50:47.068Z,2.58
2023-04-02T18:53:19.728Z,3.25
2023-04-02T18:55:56.689Z,3.00
2023-04-02T18:58:46.412Z,3.17
2023-04-02T19:01:22.756Z,3.20
2023-04-02T19:04:02.803Z,2.85
2023-04-02T19:06:52.314Z,2.85
2023-04-02T19:09:31.967Z,2.92
2023-04-02T19:11:58.992Z,2.85
2023-04-02T19:14:26.540Z,3.33
2023-04-02T19:16:56.436Z,2.47
2023-04-02T19:19:35.828Z,2.97
2023-04-02T19:22:33.642Z,2.67
2023-04-02T19:25:16.682Z,3.70
2023-04-02T19:28:23.407Z,2.72
2023-04-02T19:31:25.207Z,3.15
2023-04-02T19:34:49.106Z,3.75
2023-04-02T19:37:55.592Z,3.33
2023-04-02T19:43:21.908Z,2.53
2023-04-02T19:45:50.177Z,2.50
2023-04-02T19:48:22.515Z,2.97
2023-04-02T19:50:49.803Z,2.70
2023-04-02T19:53:18.399Z,2.92
2023-04-02T19:55:46.827Z,2.88
2023-04-02T19:58:33.534Z,2.95
2023-04-02T20:01:01.815Z,2.97
2023-04-02T20:03:30.541Z,3.40
2023-04-02T20:05:59.608Z,3.30
2023-04-02T20:08:28.276Z,2.50
2023-04-02T20:10:58.469Z,2.75
2023-04-02T20:13:25.891Z,2.30
2023-04-02T20:15:52.987Z,3.20
2023-04-02T20:18:20.646Z,2.33
2023-04-02T20:20:48.795Z,2.15
2023-04-02T20:23:17.136Z,2.50
2023-04-02T20:25:55.251Z,2.60
2023-04-02T20:28:24.741Z,2.10
2023-04-02T20:30:52.766Z,2.90
2023-04-02T20:33:24.085Z,3.85
2023-04-02T20:35:52.532Z,3.25
2023-04-02T20:38:19.855Z,2.88
2023-04-02T20:40:52.834Z,3.75
2023-04-02T20:43:20.133Z,3.28
2023-04-02T20:46:01.527Z,3.53
2023-04-02T20:48:32.381Z,3.55
2023-04-02T20:51:02.173Z,3.78
2023-04-02T20:53:35.278Z,2.47
2023-04-02T20:56:08.195Z,3.50
2023-04-02T20:58:37.603Z,2.70
2023-04-02T21:01:27.194Z,2.75
2023-04-02T21:04:01.178Z,3.17
2023-04-02T21:06:32.351Z,3.20
2023-04-02T21:09:05.360Z,3.63
2023-04-02T21:11:35.399Z,3.67
2023-04-02T21:14:04.194Z,3.63
2023-04-02T21:16:32.236Z,3.72
2023-04-02T21:19:06.686Z,2.72
2023-04-02T21:21:35.857Z,3.33
2023-04-02T21:24:07.309Z,3.42
2023-04-02T21:26:39.941Z,3.00
2023-04-02T21:29:07.613Z,3.95
2023-04-02T21:31:38.729Z,2.80
2023-04-02T21:34:08.474Z,3.60
2023-04-02T21:36:40.126Z,3.17
2023-04-02T21:39:17.360Z,3.40
2023-04-02T21:41:55.429Z,3.67
2023-04-02T21:44:24.646Z,3.00
2023-04-02T21:46:54.102Z,3.20
2023-04-02T21:49:23.576Z,3.13
2023-04-02T21:51:54.277Z,3.33
2023-04-02T21:54:21.695Z,3.42
2023-04-02T21:56:49.765Z,4.00
2023-04-02T21:59:17.819Z,2.83
2023-04-02T22:01:51.249Z,3.60
2023-04-02T22:04:22.777Z,3.50
2023-04-02T22:06:52.315Z,3.17
2023-04-02T22:09:24.536Z,3.50
2023-04-02T22:12:01.841Z,2.80
2023-04-02T22:14:30.253Z,2.78
2023-04-02T22:16:58.793Z,2.90
2023-04-02T22:19:27.219Z,2.90
2023-04-02T22:21:54.071Z,3.05
2023-04-02T22:24:24.992Z,2.42
2023-04-02T22:26:52.653Z,3.08
2023-04-02T22:29:20.005Z,2.53
2023-04-02T22:31:47.372Z,2.95
2023-04-02T22:34:15.132Z,2.60
2023-04-02T22:36:42.033Z,2.53
2023-04-02T22:39:12.061Z,2.47
2023-04-02T22:41:39.391Z,2.42
2023-04-02T22:44:06.969Z,3.00
2023-04-02T22:46:34.769Z,2.25
2023-04-02T22:49:02.188Z,2.80
2023-04-02T22:51:29.923Z,2.25
2023-04-02T22:53:57.416Z,2.38
2023-04-02T22:56:31.731Z,2.70
2023-04-02T22:58:59.405Z,1.90
2023-04-02T23:01:36.997Z,2.53
2023-04-02T23:04:05.453Z,2.58
2023-04-02T23:06:32.586Z,2.47
2023-04-02T23:08:59.908Z,2.33
2023-04-02T23:11:28.319Z,2.60
2023-04-02T23:13:58.301Z,2.20
2023-04-02T23:16:28.937Z,2.42
2023-04-02T23:18:57.222Z,1.90
2023-04-02T23:21:26.135Z,2.38
2023-04-02T23:23:53.800Z,2.50
2023-04-02T23:26:31.431Z,2.35
2023-04-02T23:29:00.730Z,2.30
2023-04-02T23:31:28.388Z,2.50
2023-04-02T23:33:55.862Z,2.42
2023-04-02T23:36:27.648Z,3.25
2023-04-02T23:38:58.014Z,2.10
2023-04-02T23:41:27.196Z,2.30
2023-04-02T23:43:56.287Z,2.88
2023-04-02T23:46:24.989Z,2.17
2023-04-02T23:48:53.272Z,2.40
2023-04-02T23:51:20.744Z,2.45
2023-04-02T23:53:49.390Z,1.98
2023-04-02T23:56:17.592Z,2.15
2023-04-02T23:58:44.834Z,2.20
